KMYV/MYV METAR and TAF weather

Enter ICAO airport designator
Station Type Date Time Source
KMYV METAR 2021/08/05 04:53 UTC NOAA

KMYV 050453Z AUTO 16014KT 10SM CLR 24/11 A2983 RMK AO2 SLP105 T02390106


Station Type Date Time Source
KMYV Decoded METAR 2021/08/05 04:53 UTC NOAA

MARYSVILLE YUBA COUNTY, CA, United States (KMYV) 39-06N 121-34W 21M
Aug 05, 2021 - 12:53 AM EDT / 2021.08.05 0453 UTC
Wind: from the SSE (160 degrees) at 16 MPH (14 KT):0
Visibility: 10 mile(s):0
Sky conditions: clear
Temperature: 75.0 F (23.9 C)
Dew Point: 51.1 F (10.6 C)
Relative Humidity: 43%
Pressure (altimeter): 29.83 in. Hg (1010 hPa)
ob: KMYV 050453Z AUTO 16014KT 10SM CLR 24/11 A2983 RMK AO2 SLP105 T02390106
cycle: 5

Station Type Date Time Source
KMYV TAF UTC NOAA

Error!

Example: see airport list